Time;durP1;ratioP1;P1;durP2;ratioP2;P2;SDS_P1;SDS_P2;PMS_P1;PMS_P2;Temp;Humidity;BMP_temperature;BMP_pressure;BME280_temperature;BME280_humidity;BME280_pressure;Samples;Min_cycle;Max_cycle;Signal;HPM_P1;HPM_P2
2023/05/24 00:01:57;;;;;;;10.10;7.28;;;;;;;16.04;75.97;100392.33;1770916;81;21339;-57
2023/05/24 00:05:06;;;;;;;12.15;7.08;;;;;;;16.05;75.95;100384.35;1793835;80;21264;-58
2023/05/24 00:08:14;;;;;;;9.75;7.65;;;;;;;16.08;75.97;100391.35;1793817;80;21339;-59
2023/05/24 00:11:21;;;;;;;9.25;7.22;;;;;;;16.10;76.05;100403.91;1770752;81;21881;-60
2023/05/24 00:14:27;;;;;;;15.23;8.23;;;;;;;16.16;76.20;100406.34;1793600;80;21216;-59
2023/05/24 00:17:39;;;;;;;12.35;7.70;;;;;;;16.20;76.32;100407.11;1793893;80;21228;-59
2023/05/24 00:20:41;;;;;;;13.80;7.45;;;;;;;16.26;76.36;100402.11;1771222;81;21355;-59
2023/05/24 00:23:47;;;;;;;11.57;7.55;;;;;;;16.30;76.42;100403.37;1793815;80;21343;-60
2023/05/24 00:26:53;;;;;;;11.43;7.80;;;;;;;16.31;76.32;100407.86;1793718;79;21236;-58
2023/05/24 00:29:59;;;;;;;12.10;7.67;;;;;;;16.34;76.38;100403.81;1793773;80;21405;-59
2023/05/24 00:33:06;;;;;;;10.80;7.00;;;;;;;16.38;76.44;100413.36;1788816;80;21366;-59
2023/05/24 00:36:13;;;;;;;9.10;7.17;;;;;;;16.36;76.22;100412.75;1770924;81;21399;-59
2023/05/24 00:39:18;;;;;;;10.10;7.08;;;;;;;16.30;76.10;100413.05;1771551;80;21403;-59
2023/05/24 00:42:27;;;;;;;10.90;7.37;;;;;;;16.28;76.15;100413.78;1793802;80;21209;-59
2023/05/24 00:45:34;;;;;;;11.43;7.45;;;;;;;16.29;76.20;100411.88;1793858;80;21367;-59
2023/05/24 00:48:41;;;;;;;11.57;7.30;;;;;;;16.28;76.26;100411.02;1771278;80;21279;-59
2023/05/24 00:51:47;;;;;;;10.63;7.17;;;;;;;16.25;76.21;100408.68;1793956;80;21370;-58
2023/05/24 00:54:53;;;;;;;11.97;7.10;;;;;;;16.22;76.18;100406.34;1793852;80;21335;-59
2023/05/24 00:57:59;;;;;;;11.73;7.10;;;;;;;16.22;76.24;100402.20;1787802;79;21379;-59
2023/05/24 01:01:09;;;;;;;11.35;6.83;;;;;;;16.22;76.27;100402.75;1766461;81;21347;-58
2023/05/24 01:04:16;;;;;;;15.18;7.72;;;;;;;16.18;76.27;100399.56;1793917;80;21339;-58
2023/05/24 01:08:02;;;;;;;9.48;7.75;;;;;;;16.15;76.28;100394.98;1793223;80;21350;-59
2023/05/24 01:11:15;;;;;;;10.28;8.03;;;;;;;16.11;76.37;100397.31;1793650;80;21361;-57
2023/05/24 01:14:31;;;;;;;11.83;8.08;;;;;;;16.10;76.54;100395.63;1793805;79;21205;-58
2023/05/24 01:18:00;;;;;;;12.88;8.08;;;;;;;16.09;76.63;100392.52;1793113;79;21327;-59
2023/05/24 01:21:48;;;;;;;12.70;7.92;;;;;;;16.09;76.81;100400.80;1794001;80;21320;-58
2023/05/24 01:25:15;;;;;;;12.58;7.90;;;;;;;16.15;77.02;100402.75;1792657;79;21339;-58
2023/05/24 01:28:24;;;;;;;10.03;7.72;;;;;;;16.18;77.02;100409.23;1793859;79;21364;-59
2023/05/24 01:31:29;;;;;;;11.97;7.10;;;;;;;16.22;77.15;100420.16;1793401;80;21316;-58
2023/05/24 01:34:36;;;;;;;14.68;6.97;;;;;;;16.24;77.18;100415.28;1793701;80;21382;-58
2023/05/24 01:37:43;;;;;;;11.45;7.08;;;;;;;16.24;77.10;100418.05;1793888;79;21339;-57
2023/05/24 01:40:49;;;;;;;10.35;6.90;;;;;;;16.26;77.11;100416.45;1793599;79;21841;-57
2023/05/24 01:44:05;;;;;;;10.00;6.53;;;;;;;16.27;77.22;100414.85;1793634;79;21840;-57
2023/05/24 01:47:44;;;;;;;8.73;6.72;;;;;;;16.29;77.33;100413.27;1793839;80;21355;-57
2023/05/24 01:50:58;;;;;;;13.10;7.75;;;;;;;16.30;77.38;100411.66;1793918;80;21162;-57
2023/05/24 01:54:07;;;;;;;8.43;6.75;;;;;;;16.32;77.44;100413.69;1793649;79;21335;-57
2023/05/24 01:57:16;;;;;;;11.33;6.70;;;;;;;16.33;77.47;100416.77;1793545;80;21197;-57
2023/05/24 02:00:23;;;;;;;8.15;6.97;;;;;;;16.33;77.45;100416.77;1793936;80;21351;-58
2023/05/24 02:03:30;;;;;;;9.48;6.92;;;;;;;16.34;77.44;100419.86;1793886;79;21382;-57
2023/05/24 02:06:38;;;;;;;10.53;7.37;;;;;;;16.34;77.44;100416.24;1793895;80;21324;-57
2023/05/24 02:09:44;;;;;;;14.75;7.40;;;;;;;16.33;77.45;100416.77;1793869;80;21162;-57
2023/05/24 02:12:51;;;;;;;13.85;8.95;;;;;;;16.35;77.50;100417.41;1793854;79;21350;-58
2023/05/24 02:15:58;;;;;;;16.77;9.35;;;;;;;16.35;77.53;100416.03;1793846;80;21240;-58
2023/05/24 02:19:06;;;;;;;16.10;8.73;;;;;;;16.35;77.58;100411.88;1793867;79;21366;-58
2023/05/24 02:22:12;;;;;;;11.48;7.42;;;;;;;16.37;77.69;100418.58;1793824;80;21209;-58
2023/05/24 02:25:18;;;;;;;13.68;7.00;;;;;;;16.37;77.76;100419.44;1793866;80;21327;-58
2023/05/24 02:28:25;;;;;;;13.38;6.60;;;;;;;16.38;77.84;100416.98;1793831;79;21177;-58
2023/05/24 02:31:31;;;;;;;9.88;6.92;;;;;;;16.37;77.85;100423.58;1793883;80;21200;-58
2023/05/24 02:34:38;;;;;;;12.85;6.97;;;;;;;16.38;77.92;100423.89;1793864;79;21794;-58
2023/05/24 02:37:44;;;;;;;10.23;7.28;;;;;;;16.37;77.94;100428.25;1793867;79;21240;-59
2023/05/24 02:40:50;;;;;;;11.53;7.20;;;;;;;16.36;78.09;100427.39;1793806;80;21785;-57
2023/05/24 02:43:56;;;;;;;12.88;8.33;;;;;;;16.39;78.23;100428.89;1793886;79;21323;-58
2023/05/24 02:47:01;;;;;;;12.10;7.95;;;;;;;16.41;78.35;100424.84;1793899;80;21198;-59
2023/05/24 02:50:07;;;;;;;10.15;7.45;;;;;;;16.47;78.53;100434.25;1793998;80;21260;-59
2023/05/24 02:53:13;;;;;;;12.98;7.95;;;;;;;16.49;78.51;100435.41;1793815;79;21441;-58
2023/05/24 02:56:18;;;;;;;11.83;7.75;;;;;;;16.50;78.53;100429.67;1793843;80;21697;-58
2023/05/24 02:59:26;;;;;;;12.10;7.70;;;;;;;16.53;78.59;100422.33;1782670;79;21406;-57
2023/05/24 03:02:37;;;;;;;11.28;7.53;;;;;;;16.58;78.61;100431.36;1757709;81;21197;-57
2023/05/24 03:05:43;;;;;;;10.20;8.10;;;;;;;16.58;78.55;100438.27;1754669;81;21403;-60
2023/05/24 03:08:48;;;;;;;10.82;8.03;;;;;;;16.58;78.52;100431.36;1757702;81;21560;-58
2023/05/24 03:11:57;;;;;;;12.35;8.35;;;;;;;16.57;78.58;100433.81;1757682;81;21261;-58
2023/05/24 03:15:02;;;;;;;13.22;8.50;;;;;;;16.59;78.70;100435.30;1757703;81;21381;-57
2023/05/24 03:18:08;;;;;;;9.90;8.03;;;;;;;16.62;78.71;100425.74;1757696;81;21193;-57
2023/05/24 03:21:16;;;;;;;10.80;7.92;;;;;;;16.67;78.83;100431.45;1757726;81;21193;-59
2023/05/24 03:24:22;;;;;;;11.93;8.48;;;;;;;16.67;78.74;100423.16;1757685;81;21399;-58
2023/05/24 03:27:29;;;;;;;18.07;8.38;;;;;;;16.66;78.79;100419.56;1757721;81;21320;-58
2023/05/24 03:30:35;;;;;;;11.40;8.83;;;;;;;16.68;78.83;100416.59;1757726;81;21848;-58
2023/05/24 03:33:42;;;;;;;12.80;9.08;;;;;;;16.71;78.93;100421.16;1758197;81;21751;-59
2023/05/24 03:36:49;;;;;;;13.25;9.70;;;;;;;16.78;79.10;100430.28;1757678;81;21335;-58
2023/05/24 03:39:56;;;;;;;11.88;9.35;;;;;;;16.83;79.04;100425.48;1757692;81;21886;-58
2023/05/24 03:43:11;;;;;;;12.43;9.53;;;;;;;16.84;79.04;100421.67;1757348;81;21196;-59
2023/05/24 03:46:22;;;;;;;13.68;10.18;;;;;;;16.90;79.07;100429.10;1709129;81;21915;-59
2023/05/24 03:49:29;;;;;;;16.65;10.03;;;;;;;16.96;79.11;100433.77;1733266;81;21724;-59
2023/05/24 03:52:35;;;;;;;16.05;9.93;;;;;;;17.03;79.20;100430.46;1727656;83;21339;-59
2023/05/24 03:55:41;;;;;;;15.68;9.65;;;;;;;17.11;79.22;100429.67;1729333;83;21876;-58
2023/05/24 03:58:51;;;;;;;12.55;9.20;;;;;;;17.20;79.25;100424.25;1709998;83;21310;-57
2023/05/24 04:01:57;;;;;;;12.07;9.53;;;;;;;17.29;79.26;100424.84;1752708;81;21914;-59
2023/05/24 04:05:04;;;;;;;14.45;10.18;;;;;;;17.32;79.15;100423.02;1762294;81;21414;-59
2023/05/24 04:08:10;;;;;;;14.75;10.13;;;;;;;17.36;79.17;100426.50;1761585;81;21840;-58
2023/05/24 04:11:15;;;;;;;11.95;9.85;;;;;;;17.42;79.18;100422.89;1761601;81;21667;-59
2023/05/24 04:14:20;;;;;;;12.70;9.83;;;;;;;17.47;79.14;100428.62;1762556;80;21370;-59
2023/05/24 04:17:28;;;;;;;11.95;9.98;;;;;;;17.53;79.13;100425.52;1762109;81;21915;-59
2023/05/24 04:20:37;;;;;;;18.07;10.82;;;;;;;17.56;79.11;100425.08;1762262;80;21342;-58
2023/05/24 04:23:43;;;;;;;11.68;9.68;;;;;;;17.61;79.13;100419.73;1762004;81;21960;-58
2023/05/24 04:26:50;;;;;;;13.22;9.45;;;;;;;17.67;79.22;100421.62;1738330;82;21356;-59
2023/05/24 04:29:55;;;;;;;13.35;10.38;;;;;;;17.72;79.23;100419.91;1734005;82;21232;-60
2023/05/24 04:33:02;;;;;;;11.60;9.38;;;;;;;17.83;79.33;100422.50;1734229;83;21285;-60
2023/05/24 04:36:10;;;;;;;12.93;9.25;;;;;;;17.93;79.36;100431.19;1734539;83;21205;-60
2023/05/24 04:39:17;;;;;;;12.70;9.23;;;;;;;18.02;79.23;100430.36;1734668;83;21368;-59
2023/05/24 04:42:22;;;;;;;12.25;10.18;;;;;;;18.10;79.28;100426.80;1735074;81;21845;-60
2023/05/24 04:45:29;;;;;;;11.88;9.15;;;;;;;18.20;79.27;100423.54;1741410;81;21852;-60
2023/05/24 04:48:35;;;;;;;15.30;8.80;;;;;;;18.32;79.32;100419.82;1766254;81;21346;-58
2023/05/24 04:51:40;;;;;;;11.43;8.75;;;;;;;18.45;79.44;100418.37;1765390;81;21267;-58
2023/05/24 04:54:48;;;;;;;12.50;8.38;;;;;;;18.56;79.33;100428.72;1764823;81;21228;-58
2023/05/24 04:57:54;;;;;;;16.15;9.78;;;;;;;18.63;79.31;100415.63;1765073;81;21717;-59
2023/05/24 05:01:00;;;;;;;10.70;7.53;;;;;;;18.77;79.43;100428.33;1740821;81;21229;-56
2023/05/24 05:04:06;;;;;;;12.55;8.43;;;;;;;18.92;79.48;100424.64;1726905;81;21284;-58
2023/05/24 05:07:15;;;;;;;9.75;7.80;;;;;;;19.02;79.42;100420.81;1715094;82;21245;-56
2023/05/24 05:10:21;;;;;;;9.95;7.15;;;;;;;19.13;79.32;100424.22;1722663;82;21260;-57
2023/05/24 05:13:27;;;;;;;13.88;7.35;;;;;;;19.23;79.30;100434.22;1738539;82;21437;-56
2023/05/24 05:16:34;;;;;;;10.08;7.70;;;;;;;19.34;79.24;100443.20;1733249;81;21216;-57
2023/05/24 05:19:41;;;;;;;11.48;7.72;;;;;;;19.51;79.37;100445.36;1726834;83;21714;-57
2023/05/24 05:22:52;;;;;;;7.83;6.65;;;;;;;19.64;79.41;100446.59;1721927;82;21270;-57
2023/05/24 05:25:59;;;;;;;12.28;6.33;;;;;;;19.77;79.47;100447.81;1704763;83;21792;-57
2023/05/24 05:29:04;;;;;;;7.60;5.97;;;;;;;19.78;79.16;100448.12;1723542;82;21283;-57
2023/05/24 05:32:10;;;;;;;6.80;5.42;;;;;;;19.84;79.38;100448.03;1724299;82;21229;-57
2023/05/24 05:35:17;;;;;;;8.70;5.83;;;;;;;20.01;79.58;100452.41;1737938;82;21395;-57
2023/05/24 05:38:23;;;;;;;7.58;6.22;;;;;;;20.17;79.53;100452.61;1737928;82;21939;-57
2023/05/24 05:41:31;;;;;;;12.47;5.95;;;;;;;20.28;79.50;100456.54;1727005;81;21378;-57
2023/05/24 05:44:37;;;;;;;11.70;6.08;;;;;;;20.39;79.39;100457.94;1709198;84;21378;-56
2023/05/24 05:47:43;;;;;;;7.90;5.72;;;;;;;20.49;79.43;100457.36;1718233;82;21371;-56
2023/05/24 05:50:50;;;;;;;7.37;5.87;;;;;;;20.62;79.34;100457.16;1718743;82;21367;-56
2023/05/24 05:53:56;;;;;;;8.40;5.92;;;;;;;20.72;79.24;100462.98;1707252;82;21321;-56
2023/05/24 05:57:02;;;;;;;8.83;5.95;;;;;;;20.88;79.41;100473.41;1717490;82;21359;-57
2023/05/24 06:00:08;;;;;;;10.72;6.28;;;;;;;21.03;79.51;100473.80;1716656;82;21738;-56
2023/05/24 06:03:14;;;;;;;9.10;6.10;;;;;;;21.23;79.52;100472.06;1720471;81;21316;-56
2023/05/24 06:06:21;;;;;;;10.45;6.17;;;;;;;21.41;79.38;100476.08;1764508;80;21775;-57
2023/05/24 06:09:26;;;;;;;10.25;5.83;;;;;;;21.60;79.37;100468.73;1775066;79;21208;-57
2023/05/24 06:12:31;;;;;;;8.65;5.87;;;;;;;21.80;79.28;100466.41;1729896;80;21213;-57
2023/05/24 06:15:36;;;;;;;17.85;9.00;;;;;;;21.91;78.99;100466.91;1786165;80;21355;-57
2023/05/24 06:18:44;;;;;;;9.25;6.05;;;;;;;21.96;78.74;100458.66;1776962;79;21788;-55
2023/05/24 06:21:54;;;;;;;7.80;5.55;;;;;;;22.03;78.64;100459.91;1768865;80;21888;-56
2023/05/24 06:25:00;;;;;;;9.15;6.30;;;;;;;22.05;78.56;100453.02;1766041;80;21331;-56
2023/05/24 06:28:06;;;;;;;12.20;5.65;;;;;;;22.10;78.51;100456.44;1769875;80;21280;-54
2023/05/24 06:31:13;;;;;;;9.28;6.75;;;;;;;22.10;78.30;100460.05;1717301;82;21296;-56
2023/05/24 06:34:20;;;;;;;10.98;5.80;;;;;;;22.00;78.07;100461.81;1723786;83;21794;-56
2023/05/24 06:37:24;;;;;;;15.65;6.65;;;;;;;21.90;77.96;100458.80;1785833;79;21402;-56
2023/05/24 06:40:32;;;;;;;8.93;6.50;;;;;;;21.89;78.01;100466.34;1775172;79;21232;-56
2023/05/24 06:43:39;;;;;;;10.32;6.50;;;;;;;21.94;78.19;100466.45;1772221;80;21244;-56
2023/05/24 06:46:47;;;;;;;11.33;6.55;;;;;;;22.08;78.41;100471.17;1770520;80;21240;-56
2023/05/24 06:49:55;;;;;;;7.87;5.83;;;;;;;22.27;78.67;100468.48;1726982;82;21908;-56
2023/05/24 06:53:02;;;;;;;10.80;6.33;;;;;;;22.46;78.70;100465.77;1755194;81;21264;-56
2023/05/24 06:56:09;;;;;;;10.90;7.80;;;;;;;22.63;78.52;100460.27;1769548;80;21354;-55
2023/05/24 06:59:16;;;;;;;8.05;5.50;;;;;;;22.77;78.33;100454.64;1730228;81;21205;-56
2023/05/24 07:02:26;;;;;;;9.65;5.67;;;;;;;22.86;77.91;100455.91;1773613;80;21259;-55
2023/05/24 07:05:30;;;;;;;11.00;5.70;;;;;;;22.88;77.56;100455.93;1740694;80;21353;-57
2023/05/24 07:08:37;;;;;;;12.55;6.08;;;;;;;22.93;77.38;100455.20;1750736;80;21213;-55
2023/05/24 07:11:43;;;;;;;9.53;6.00;;;;;;;23.06;77.29;100452.03;1756588;81;21212;-56
2023/05/24 07:14:50;;;;;;;10.40;6.30;;;;;;;23.19;77.29;100450.28;1739314;81;21245;-56
2023/05/24 07:17:59;;;;;;;9.10;6.15;;;;;;;23.39;77.41;100449.21;1733974;81;21560;-57
2023/05/24 07:21:06;;;;;;;9.55;6.70;;;;;;;23.50;77.27;100449.64;1746119;81;21816;-56
2023/05/24 07:24:11;;;;;;;7.20;5.80;;;;;;;23.53;77.05;100452.77;1759799;81;21217;-56
2023/05/24 07:27:18;;;;;;;10.58;6.72;;;;;;;23.53;76.83;100451.95;1772789;79;21193;-56
2023/05/24 07:30:26;;;;;;;9.55;7.05;;;;;;;23.49;76.59;100448.82;1751360;81;21200;-57
2023/05/24 07:33:31;;;;;;;8.85;6.90;;;;;;;23.44;76.36;100443.16;1752685;80;21209;-57
2023/05/24 07:36:39;;;;;;;11.12;6.75;;;;;;;23.45;76.25;100452.39;1747084;81;21205;-57
2023/05/24 07:39:44;;;;;;;8.50;6.50;;;;;;;23.45;76.15;100455.19;1748257;79;21204;-56
2023/05/24 07:42:50;;;;;;;10.63;7.17;;;;;;;23.53;76.27;100447.19;1738641;80;21166;-57
2023/05/24 07:45:56;;;;;;;9.33;6.10;;;;;;;23.71;76.49;100446.57;1755781;80;21205;-56
2023/05/24 07:49:02;;;;;;;10.60;6.17;;;;;;;23.89;76.38;100455.50;1734564;82;21218;-55
2023/05/24 07:52:09;;;;;;;9.03;5.42;;;;;;;24.11;76.41;100452.70;1764837;80;21414;-57
2023/05/24 07:55:17;;;;;;;8.13;5.30;;;;;;;24.38;76.50;100449.36;1763204;79;21950;-55
2023/05/24 07:58:23;;;;;;;5.87;4.67;;;;;;;24.63;76.49;100449.61;1749600;81;21785;-56
2023/05/24 08:01:30;;;;;;;5.92;4.90;;;;;;;24.80;76.19;100446.17;1764922;81;21303;-56
2023/05/24 08:04:36;;;;;;;8.68;5.30;;;;;;;24.91;75.90;100442.34;1764044;79;21239;-57
2023/05/24 08:07:42;;;;;;;11.93;7.60;;;;;;;25.05;75.77;100446.38;1734202;81;21374;-57
2023/05/24 08:10:49;;;;;;;7.03;4.83;;;;;;;25.12;75.37;100441.36;1711926;82;21209;-57
2023/05/24 08:13:56;;;;;;;7.15;4.97;;;;;;;25.16;75.07;100441.67;1725696;82;21224;-57
2023/05/24 08:17:02;;;;;;;7.90;5.58;;;;;;;25.16;74.85;100446.73;1758781;80;21196;-56
2023/05/24 08:20:16;;;;;;;9.28;5.12;;;;;;;25.04;74.35;100443.27;1709875;84;21212;-55
2023/05/24 08:23:19;;;;;;;6.78;5.12;;;;;;;24.79;73.74;100441.66;1700478;81;21742;-56
2023/05/24 08:26:25;;;;;;;8.15;5.00;;;;;;;24.56;73.79;100449.81;1710056;84;21852;-55
2023/05/24 08:29:30;;;;;;;9.50;5.65;;;;;;;24.63;74.33;100436.45;1731206;81;21245;-57
2023/05/24 08:32:37;;;;;;;5.72;5.10;;;;;;;24.73;74.53;100437.14;1721854;82;21350;-56
2023/05/24 08:35:48;;;;;;;6.22;4.62;;;;;;;24.85;74.67;100429.38;1726711;81;21410;-56
2023/05/24 08:38:55;;;;;;;8.45;5.45;;;;;;;24.92;74.41;100425.81;1715169;83;21256;-56
2023/05/24 08:42:02;;;;;;;9.73;5.03;;;;;;;24.97;74.42;100425.28;1734994;82;21965;-56
2023/05/24 08:45:21;;;;;;;9.90;5.17;;;;;;;25.04;74.31;100420.84;1740804;81;21759;-57
2023/05/24 08:48:28;;;;;;;13.90;5.53;;;;;;;25.01;74.03;100425.05;1727105;82;21379;-57
2023/05/24 08:51:37;;;;;;;9.28;5.65;;;;;;;24.96;73.55;100418.00;1762239;80;21185;-56
2023/05/24 08:54:46;;;;;;;10.13;4.78;;;;;;;24.82;73.34;100413.13;1725031;81;21307;-56
2023/05/24 08:57:53;;;;;;;6.62;5.45;;;;;;;24.89;73.62;100417.38;1707694;82;21337;-57
2023/05/24 09:00:59;;;;;;;10.98;5.70;;;;;;;25.02;73.66;100423.09;1718054;82;21794;-58
2023/05/24 09:04:07;;;;;;;7.72;5.47;;;;;;;25.08;73.33;100411.62;1748242;81;21233;-58
2023/05/24 09:07:14;;;;;;;7.95;5.62;;;;;;;25.10;73.07;100414.19;1774519;80;21210;-58
2023/05/24 09:10:20;;;;;;;9.38;6.42;;;;;;;25.16;72.98;100410.85;1792575;80;21193;-58
2023/05/24 09:13:30;;;;;;;9.00;6.65;;;;;;;25.16;72.51;100412.25;1735089;82;21870;-56
2023/05/24 09:16:36;;;;;;;7.10;6.37;;;;;;;25.24;72.57;100409.80;1734387;82;21205;-57
2023/05/24 09:19:47;;;;;;;7.72;6.30;;;;;;;25.34;72.55;100414.66;1751400;80;21222;-56
2023/05/24 09:22:59;;;;;;;11.57;6.85;;;;;;;25.42;72.39;100412.73;1750560;80;22081;-56
2023/05/24 09:26:06;;;;;;;7.12;5.80;;;;;;;25.57;72.25;100415.05;1747989;80;21878;-56
2023/05/24 09:29:19;;;;;;;7.92;5.85;;;;;;;25.70;72.08;100410.36;1716982;83;21356;-58
2023/05/24 09:32:27;;;;;;;10.00;5.83;;;;;;;25.77;71.77;100419.89;1740413;82;21394;-58
2023/05/24 09:35:35;;;;;;;175.18;15.28;;;;;;;25.84;71.56;100422.75;1762228;80;21382;-58
2023/05/24 09:38:43;;;;;;;10.63;5.75;;;;;;;25.94;71.36;100421.36;1761369;81;21464;-57
2023/05/24 09:41:55;;;;;;;12.30;6.37;;;;;;;25.97;71.10;100428.41;1700243;83;21221;-57
2023/05/24 09:45:11;;;;;;;9.75;5.70;;;;;;;26.08;71.10;100417.53;1729719;81;21272;-57
2023/05/24 10:01:38;;;;;;;7.30;4.53;;;;;;;26.84;68.86;100429.17;1831237;78;28129;-51
2023/05/24 10:04:48;;;;;;;6.90;4.65;;;;;;;26.82;68.51;100431.97;1818452;78;21440;-51
2023/05/24 10:07:55;;;;;;;8.28;5.40;;;;;;;26.99;68.68;100443.20;1803673;78;21861;-52
2023/05/24 10:11:06;;;;;;;6.72;5.28;;;;;;;27.15;68.58;100437.00;1792827;78;21674;-56
2023/05/24 10:14:16;;;;;;;7.28;5.03;;;;;;;27.05;67.95;100439.26;1754081;81;21378;-58
2023/05/24 10:17:22;;;;;;;6.97;5.20;;;;;;;27.01;67.86;100437.30;1799396;79;21351;-58
2023/05/24 10:20:28;;;;;;;6.67;5.25;;;;;;;27.12;67.88;100438.42;1782653;79;21390;-57
2023/05/24 10:23:39;;;;;;;10.75;6.10;;;;;;;27.28;67.83;100433.09;1797055;79;21355;-57
2023/05/24 10:26:48;;;;;;;7.78;5.50;;;;;;;27.47;67.59;100432.77;1796872;77;21188;-60
2023/05/24 10:30:12;;;;;;;9.18;5.40;;;;;;;27.67;67.49;100430.47;1806052;78;21201;-59
2023/05/24 10:47:17;;;;;;;3.75;1.65;;;;;;;26.00;62.67;100442.77;1843314;77;28154;-56
2023/05/24 10:50:29;;;;;;;3.40;1.67;;;;;;;25.33;62.73;100436.73;1829450;77;21369;-57
2023/05/24 10:53:42;;;;;;;3.95;1.67;;;;;;;24.79;63.53;100450.92;1814072;77;21367;-57
2023/05/24 10:56:57;;;;;;;4.47;2.40;;;;;;;24.52;64.12;100447.27;1817815;77;21249;-57
2023/05/24 11:00:08;;;;;;;4.00;2.70;;;;;;;24.37;64.31;100459.70;1816509;77;22149;-57
2023/05/24 11:03:22;;;;;;;4.50;3.27;;;;;;;24.09;64.29;100454.91;1791927;80;21940;-59
2023/05/24 11:06:23;;;;;;;6.35;3.33;;;;;;;23.88;64.40;100459.38;1812384;77;21356;-58
2023/05/24 11:09:31;;;;;;;5.85;3.70;;;;;;;23.67;64.50;100469.17;1816945;77;21263;-57
2023/05/24 11:12:39;;;;;;;7.22;3.62;;;;;;;23.41;64.58;100463.23;1795218;77;21316;-56
2023/05/24 11:15:45;;;;;;;8.73;4.67;;;;;;;23.24;64.65;100465.73;1809308;77;21820;-60
2023/05/24 11:18:58;;;;;;;9.03;4.65;;;;;;;23.00;64.61;100455.84;1817573;78;21392;-57
2023/05/24 11:22:03;;;;;;;11.68;5.00;;;;;;;22.75;64.57;100441.48;1818509;77;21365;-56
2023/05/24 11:25:11;;;;;;;9.05;5.80;;;;;;;22.53;64.48;100433.56;1805351;78;21457;-56
2023/05/24 11:28:19;;;;;;;9.50;5.83;;;;;;;22.17;64.36;100420.86;1803202;77;21385;-58
2023/05/24 11:31:30;;;;;;;13.00;5.55;;;;;;;21.99;64.57;100418.30;1822251;76;21341;-57
2023/05/24 11:34:39;;;;;;;8.10;5.25;;;;;;;21.81;64.63;100427.70;1790920;77;21878;-57
2023/05/24 11:37:45;;;;;;;9.45;6.05;;;;;;;21.53;64.71;100442.94;1822306;78;21212;-59
2023/05/24 11:40:52;;;;;;;10.53;5.47;;;;;;;21.33;64.92;100449.45;1807269;77;21352;-59
2023/05/24 11:43:57;;;;;;;11.78;6.20;;;;;;;21.26;65.21;100455.72;1801368;78;21195;-58
2023/05/24 11:47:09;;;;;;;9.48;5.78;;;;;;;21.21;65.29;100451.42;1804388;78;21220;-58
2023/05/24 11:50:16;;;;;;;11.15;6.17;;;;;;;21.13;65.44;100436.47;1759968;79;22034;-58
2023/05/24 11:53:26;;;;;;;13.32;6.40;;;;;;;21.03;65.52;100440.40;1738006;80;21491;-58
2023/05/24 11:56:36;;;;;;;13.28;6.22;;;;;;;20.88;65.62;100437.23;1760059;79;21357;-60
2023/05/24 11:59:44;;;;;;;7.15;5.50;;;;;;;20.72;65.81;100429.03;1721817;82;21233;-58
2023/05/24 12:02:51;;;;;;;9.60;5.33;;;;;;;20.66;66.05;100431.95;1742462;80;21236;-58
2023/05/24 12:05:56;;;;;;;7.65;6.00;;;;;;;20.61;66.24;100439.60;1733370;80;21249;-60
2023/05/24 12:09:12;;;;;;;8.53;5.40;;;;;;;20.58;66.46;100460.95;1756891;80;21851;-66
2023/05/24 12:12:22;;;;;;;6.22;5.03;;;;;;;20.59;66.64;100450.67;1756515;80;21890;-58
2023/05/24 12:15:45;;;;;;;7.67;5.92;;;;;;;20.56;66.71;100431.69;1705840;83;21723;-59
2023/05/24 12:18:53;;;;;;;9.30;5.95;;;;;;;20.46;66.60;100431.41;1756003;80;21204;-58
2023/05/24 12:22:04;;;;;;;9.35;5.95;;;;;;;20.37;66.78;100432.33;1725058;82;21396;-58
2023/05/24 12:25:11;;;;;;;6.67;5.78;;;;;;;20.33;66.96;100438.57;1741593;80;21255;-61
2023/05/24 12:28:17;;;;;;;10.20;6.55;;;;;;;20.26;67.05;100424.80;1747537;80;21340;-58
2023/05/24 12:31:23;;;;;;;7.87;6.15;;;;;;;20.18;67.14;100425.14;1716164;82;21365;-59
2023/05/24 12:34:29;;;;;;;10.08;6.53;;;;;;;20.13;67.36;100413.84;1760270;80;21579;-57
2023/05/24 12:37:38;;;;;;;10.43;7.72;;;;;;;20.07;67.48;100393.09;1704514;83;21860;-57
2023/05/24 12:40:47;;;;;;;9.88;8.00;;;;;;;20.01;67.56;100408.77;1757960;80;21566;-59
2023/05/24 12:43:58;;;;;;;10.93;7.87;;;;;;;19.98;67.70;100427.88;1727365;82;21385;-59
2023/05/24 12:47:10;;;;;;;9.63;7.42;;;;;;;19.99;67.96;100436.50;1744204;80;21666;-59
2023/05/24 12:50:17;;;;;;;11.85;7.17;;;;;;;20.03;68.13;100429.38;1778017;79;21930;-57
2023/05/24 12:53:25;;;;;;;10.13;8.55;;;;;;;20.04;68.13;100401.34;1775065;79;21223;-57
2023/05/24 12:56:31;;;;;;;9.80;7.47;;;;;;;20.01;68.08;100410.16;1798004;79;21692;-55
2023/05/24 12:59:40;;;;;;;10.68;7.85;;;;;;;20.02;68.28;100407.70;1802996;78;21420;-57
2023/05/24 13:02:47;;;;;;;30.70;18.20;;;;;;;20.05;68.41;100416.09;1793543;79;21362;-56
2023/05/24 13:05:53;;;;;;;9.43;8.23;;;;;;;20.08;68.50;100410.92;1796347;79;21405;-56
2023/05/24 13:09:01;;;;;;;12.30;8.65;;;;;;;20.11;68.71;100409.59;1806062;79;21350;-56
2023/05/24 13:12:08;;;;;;;14.85;10.35;;;;;;;20.15;68.84;100426.97;1805719;79;21347;-57
2023/05/24 13:15:15;;;;;;;10.82;9.73;;;;;;;20.17;68.94;100430.94;1800742;79;21330;-57
2023/05/24 13:18:25;;;;;;;11.70;9.53;;;;;;;20.19;69.02;100439.86;1798189;79;21401;-57
2023/05/24 13:21:32;;;;;;;13.40;10.88;;;;;;;20.19;69.06;100453.23;1804450;79;21366;-58
2023/05/24 13:24:41;;;;;;;13.45;11.43;;;;;;;20.18;69.15;100450.16;1788540;78;21381;-56
2023/05/24 13:27:47;;;;;;;11.55;9.85;;;;;;;20.19;69.28;100453.77;1797853;78;21365;-57
2023/05/24 13:30:57;;;;;;;12.63;9.55;;;;;;;20.16;69.28;100459.27;1773912;79;21362;-57
2023/05/24 13:34:04;;;;;;;12.25;10.23;;;;;;;20.13;69.36;100467.19;1798618;79;22121;-55
2023/05/24 13:37:18;;;;;;;12.90;10.55;;;;;;;20.10;69.50;100470.45;1806005;78;21397;-57
2023/05/24 13:40:23;;;;;;;14.78;11.45;;;;;;;20.08;69.56;100475.38;1803335;78;21903;-56
2023/05/24 13:43:31;;;;;;;12.05;10.38;;;;;;;20.03;69.58;100483.58;1781866;79;21433;-58
2023/05/24 13:46:38;;;;;;;11.95;9.43;;;;;;;19.99;69.63;100479.58;1804785;79;21334;-56
2023/05/24 13:49:45;;;;;;;12.37;8.68;;;;;;;19.94;69.55;100482.21;1800739;78;21343;-56
2023/05/24 13:52:52;;;;;;;13.03;8.68;;;;;;;19.86;69.66;100483.91;1805950;79;21338;-57
2023/05/24 13:55:59;;;;;;;11.28;8.83;;;;;;;19.83;69.81;100486.63;1798444;78;21216;-57
2023/05/24 13:59:08;;;;;;;13.88;9.88;;;;;;;19.78;69.90;100489.79;1786504;78;21363;-57
2023/05/24 14:02:15;;;;;;;12.63;8.95;;;;;;;19.73;70.01;100471.05;1801554;78;21425;-58
2023/05/24 14:05:24;;;;;;;11.60;10.18;;;;;;;19.70;70.14;100464.57;1804105;79;21368;-55
2023/05/24 14:08:31;;;;;;;22.55;9.43;;;;;;;19.68;70.26;100470.06;1803732;79;21920;-57
2023/05/24 14:11:37;;;;;;;17.42;10.55;;;;;;;19.65;70.39;100462.17;1794423;78;21507;-58
2023/05/24 14:14:44;;;;;;;13.98;9.60;;;;;;;19.62;70.50;100452.91;1798407;78;21709;-57
2023/05/24 14:17:53;;;;;;;12.47;9.38;;;;;;;19.60;70.62;100447.59;1805190;79;21913;-57
2023/05/24 14:20:59;;;;;;;16.00;10.15;;;;;;;19.58;70.75;100444.75;1805540;79;21413;-58
2023/05/24 14:24:06;;;;;;;15.20;10.10;;;;;;;19.59;70.92;100455.63;1804935;79;21330;-56
2023/05/24 14:27:11;;;;;;;15.85;9.88;;;;;;;19.61;71.08;100448.45;1804309;79;21839;-57
2023/05/24 14:30:17;;;;;;;15.75;10.40;;;;;;;19.61;71.20;100447.92;1804284;79;21345;-57
2023/05/24 14:33:23;;;;;;;15.05;11.55;;;;;;;19.61;71.18;100445.14;1808558;79;21361;-58
2023/05/24 14:36:29;;;;;;;17.87;12.03;;;;;;;19.59;71.20;100433.41;1805087;78;21329;-58
2023/05/24 14:39:38;;;;;;;17.55;11.00;;;;;;;19.60;71.32;100420.37;1804621;78;21362;-58
2023/05/24 14:42:44;;;;;;;12.68;10.13;;;;;;;19.64;71.49;100417.43;1812424;78;21874;-57
2023/05/24 14:45:53;;;;;;;14.40;10.15;;;;;;;19.68;71.50;100417.29;1789275;78;21227;-59
2023/05/24 14:49:01;;;;;;;14.87;10.65;;;;;;;19.72;71.61;100419.89;1776053;79;22319;-60
2023/05/24 14:52:06;;;;;;;14.60;10.60;;;;;;;19.79;71.77;100416.49;1805213;79;21350;-58
2023/05/24 14:55:15;;;;;;;16.82;10.85;;;;;;;19.92;72.01;100415.75;1805033;79;21397;-59